Terminal Aerodrome Forecast
Issued by NWS

Home | Current Version | Previous Version | Text Only | Print | Product List | Glossary On
Versions: 1 2 3 4 5 6 7 8 9 10 11 12 13 14 15 16 17 18 19 20 21 22 23 24 25 26 27 28 29 30 31 32 33 34 35 36 37 38 39 40 41 42 43 44
114
FTUS41 KBOX 290117 AAA
TAFHYA
TAF AMD
KHYA 290117Z 2901/2924 05012G22KT P6SM OVC007
     FM291400 04015G25KT P6SM BKN010
     FM292200 05015G25KT P6SM BKN015=

USA.gov is the U.S. government's official web portal to all federal, state and local government web resources and services.